sensor_id;sensor_type;location;lat;lon;timestamp;temperature;humidity
13521;DHT22;6832;51.186;3.236;2024-02-21T00:01:49;24.60;46.20
13521;DHT22;6832;51.186;3.236;2024-02-21T00:04:15;24.50;46.10
13521;DHT22;6832;51.186;3.236;2024-02-21T00:06:42;24.60;46.20
13521;DHT22;6832;51.186;3.236;2024-02-21T00:09:10;24.60;46.20
13521;DHT22;6832;51.186;3.236;2024-02-21T00:11:37;24.60;46.20
13521;DHT22;6832;51.186;3.236;2024-02-21T00:14:04;24.60;46.20
13521;DHT22;6832;51.186;3.236;2024-02-21T00:16:31;24.60;46.10
13521;DHT22;6832;51.186;3.236;2024-02-21T00:18:58;24.60;46.20
13521;DHT22;6832;51.186;3.236;2024-02-21T00:21:25;24.60;46.20
13521;DHT22;6832;51.186;3.236;2024-02-21T00:23:52;24.60;46.20
13521;DHT22;6832;51.186;3.236;2024-02-21T00:26:20;24.60;46.20
13521;DHT22;6832;51.186;3.236;2024-02-21T00:28:47;24.60;46.10
13521;DHT22;6832;51.186;3.236;2024-02-21T00:31:14;24.60;46.10
13521;DHT22;6832;51.186;3.236;2024-02-21T00:33:40;24.50;46.10
13521;DHT22;6832;51.186;3.236;2024-02-21T00:36:07;24.60;46.10
13521;DHT22;6832;51.186;3.236;2024-02-21T00:38:34;24.60;46.20
13521;DHT22;6832;51.186;3.236;2024-02-21T00:41:01;24.60;46.10
13521;DHT22;6832;51.186;3.236;2024-02-21T00:43:30;24.60;46.10
13521;DHT22;6832;51.186;3.236;2024-02-21T00:45:57;24.60;46.10
13521;DHT22;6832;51.186;3.236;2024-02-21T00:48:24;24.60;46.10
13521;DHT22;6832;51.186;3.236;2024-02-21T00:50:50;24.60;46.10
13521;DHT22;6832;51.186;3.236;2024-02-21T00:53:17;24.60;46.10
13521;DHT22;6832;51.186;3.236;2024-02-21T00:55:44;24.60;46.10
13521;DHT22;6832;51.186;3.236;2024-02-21T00:58:11;24.60;46.10
13521;DHT22;6832;51.186;3.236;2024-02-21T01:00:39;24.60;46.10
13521;DHT22;6832;51.186;3.236;2024-02-21T01:03:06;24.60;46.10
13521;DHT22;6832;51.186;3.236;2024-02-21T01:05:33;24.60;46.10
13521;DHT22;6832;51.186;3.236;2024-02-21T01:08:00;24.60;46.10
13521;DHT22;6832;51.186;3.236;2024-02-21T01:10:26;24.60;46.10
13521;DHT22;6832;51.186;3.236;2024-02-21T01:12:53;24.60;46.10
13521;DHT22;6832;51.186;3.236;2024-02-21T01:15:20;24.60;46.10
13521;DHT22;6832;51.186;3.236;2024-02-21T01:17:48;24.50;46.00
13521;DHT22;6832;51.186;3.236;2024-02-21T01:20:20;24.60;46.10
13521;DHT22;6832;51.186;3.236;2024-02-21T01:22:47;24.60;46.10
13521;DHT22;6832;51.186;3.236;2024-02-21T01:25:14;24.60;46.10
13521;DHT22;6832;51.186;3.236;2024-02-21T01:27:40;24.60;46.10
13521;DHT22;6832;51.186;3.236;2024-02-21T01:30:08;24.50;46.10
13521;DHT22;6832;51.186;3.236;2024-02-21T01:32:36;24.60;46.10
13521;DHT22;6832;51.186;3.236;2024-02-21T01:35:04;24.60;46.20
13521;DHT22;6832;51.186;3.236;2024-02-21T01:37:31;24.60;46.10
13521;DHT22;6832;51.186;3.236;2024-02-21T01:39:58;24.60;46.10
13521;DHT22;6832;51.186;3.236;2024-02-21T01:42:25;24.60;46.10
13521;DHT22;6832;51.186;3.236;2024-02-21T01:44:52;24.60;46.30
13521;DHT22;6832;51.186;3.236;2024-02-21T01:47:21;24.60;46.10
13521;DHT22;6832;51.186;3.236;2024-02-21T01:49:49;24.60;46.10
13521;DHT22;6832;51.186;3.236;2024-02-21T01:52:18;24.60;46.10
13521;DHT22;6832;51.186;3.236;2024-02-21T01:54:45;24.60;46.10
13521;DHT22;6832;51.186;3.236;2024-02-21T01:57:13;24.50;46.10
13521;DHT22;6832;51.186;3.236;2024-02-21T01:59:41;24.60;46.10
13521;DHT22;6832;51.186;3.236;2024-02-21T02:02:07;24.60;46.10
13521;DHT22;6832;51.186;3.236;2024-02-21T02:04:34;24.60;46.20
13521;DHT22;6832;51.186;3.236;2024-02-21T02:07:04;24.60;46.20
13521;DHT22;6832;51.186;3.236;2024-02-21T02:09:34;24.60;46.10
13521;DHT22;6832;51.186;3.236;2024-02-21T02:12:02;24.60;46.10
13521;DHT22;6832;51.186;3.236;2024-02-21T02:14:29;24.60;46.20
13521;DHT22;6832;51.186;3.236;2024-02-21T02:16:56;24.60;46.10
13521;DHT22;6832;51.186;3.236;2024-02-21T02:19:23;24.60;46.20
13521;DHT22;6832;51.186;3.236;2024-02-21T02:21:51;24.60;46.20
13521;DHT22;6832;51.186;3.236;2024-02-21T02:24:24;24.60;46.10
13521;DHT22;6832;51.186;3.236;2024-02-21T02:26:52;24.60;46.20
13521;DHT22;6832;51.186;3.236;2024-02-21T02:29:19;24.60;46.20
13521;DHT22;6832;51.186;3.236;2024-02-21T02:31:46;24.60;46.20
13521;DHT22;6832;51.186;3.236;2024-02-21T02:34:12;24.60;46.10
13521;DHT22;6832;51.186;3.236;2024-02-21T02:36:39;24.60;46.30
13521;DHT22;6832;51.186;3.236;2024-02-21T02:39:06;24.60;46.10
13521;DHT22;6832;51.186;3.236;2024-02-21T02:41:36;24.60;46.10
13521;DHT22;6832;51.186;3.236;2024-02-21T02:44:03;24.60;46.10
13521;DHT22;6832;51.186;3.236;2024-02-21T02:46:30;24.60;46.10
13521;DHT22;6832;51.186;3.236;2024-02-21T02:48:57;24.60;46.20
13521;DHT22;6832;51.186;3.236;2024-02-21T02:51:24;24.60;46.10
13521;DHT22;6832;51.186;3.236;2024-02-21T02:53:51;24.60;46.10
13521;DHT22;6832;51.186;3.236;2024-02-21T02:56:17;24.60;46.10
13521;DHT22;6832;51.186;3.236;2024-02-21T02:58:46;24.60;46.10
13521;DHT22;6832;51.186;3.236;2024-02-21T03:01:12;24.60;46.10
13521;DHT22;6832;51.186;3.236;2024-02-21T03:03:40;24.60;46.10
13521;DHT22;6832;51.186;3.236;2024-02-21T03:06:07;24.60;46.10
13521;DHT22;6832;51.186;3.236;2024-02-21T03:08:34;24.60;46.10
13521;DHT22;6832;51.186;3.236;2024-02-21T03:11:01;24.70;46.20
13521;DHT22;6832;51.186;3.236;2024-02-21T03:13:28;24.60;46.10
13521;DHT22;6832;51.186;3.236;2024-02-21T03:15:56;24.70;46.20
13521;DHT22;6832;51.186;3.236;2024-02-21T03:18:23;24.70;46.20
13521;DHT22;6832;51.186;3.236;2024-02-21T03:20:50;24.70;46.20
13521;DHT22;6832;51.186;3.236;2024-02-21T03:23:17;24.70;46.20
13521;DHT22;6832;51.186;3.236;2024-02-21T03:25:44;24.70;46.20
13521;DHT22;6832;51.186;3.236;2024-02-21T03:28:10;24.60;46.10
13521;DHT22;6832;51.186;3.236;2024-02-21T03:30:38;24.70;46.20
13521;DHT22;6832;51.186;3.236;2024-02-21T03:33:06;24.70;46.20
13521;DHT22;6832;51.186;3.236;2024-02-21T03:35:33;24.70;46.20
13521;DHT22;6832;51.186;3.236;2024-02-21T03:38:00;24.70;46.60
13521;DHT22;6832;51.186;3.236;2024-02-21T03:40:27;24.70;46.20
13521;DHT22;6832;51.186;3.236;2024-02-21T03:42:53;24.70;46.20
13521;DHT22;6832;51.186;3.236;2024-02-21T03:45:20;24.60;46.10
13521;DHT22;6832;51.186;3.236;2024-02-21T03:47:47;24.70;46.20
13521;DHT22;6832;51.186;3.236;2024-02-21T03:50:15;24.70;46.20
13521;DHT22;6832;51.186;3.236;2024-02-21T03:52:42;24.60;46.10
13521;DHT22;6832;51.186;3.236;2024-02-21T03:55:09;24.70;46.20
13521;DHT22;6832;51.186;3.236;2024-02-21T03:57:36;24.70;46.20
13521;DHT22;6832;51.186;3.236;2024-02-21T04:00:05;24.70;46.20
13521;DHT22;6832;51.186;3.236;2024-02-21T04:02:36;24.60;46.10
13521;DHT22;6832;51.186;3.236;2024-02-21T04:05:03;24.70;46.20
13521;DHT22;6832;51.186;3.236;2024-02-21T04:07:32;24.70;46.20
13521;DHT22;6832;51.186;3.236;2024-02-21T04:09:58;24.70;46.20
13521;DHT22;6832;51.186;3.236;2024-02-21T04:12:25;24.70;46.20
13521;DHT22;6832;51.186;3.236;2024-02-21T04:14:52;24.60;46.10
13521;DHT22;6832;51.186;3.236;2024-02-21T04:17:19;24.70;46.20
13521;DHT22;6832;51.186;3.236;2024-02-21T04:19:46;24.70;46.20
13521;DHT22;6832;51.186;3.236;2024-02-21T04:22:13;24.70;46.20
13521;DHT22;6832;51.186;3.236;2024-02-21T04:24:41;24.60;46.10
13521;DHT22;6832;51.186;3.236;2024-02-21T04:27:08;24.60;46.10
13521;DHT22;6832;51.186;3.236;2024-02-21T04:29:34;24.70;46.20
13521;DHT22;6832;51.186;3.236;2024-02-21T04:32:02;24.70;46.20
13521;DHT22;6832;51.186;3.236;2024-02-21T04:34:29;24.70;46.20
13521;DHT22;6832;51.186;3.236;2024-02-21T04:36:56;24.70;46.20
13521;DHT22;6832;51.186;3.236;2024-02-21T04:39:23;24.60;46.10
13521;DHT22;6832;51.186;3.236;2024-02-21T04:41:51;24.70;46.20
13521;DHT22;6832;51.186;3.236;2024-02-21T04:44:18;24.70;46.20
13521;DHT22;6832;51.186;3.236;2024-02-21T04:46:47;24.70;46.20
13521;DHT22;6832;51.186;3.236;2024-02-21T04:49:14;24.70;46.20
13521;DHT22;6832;51.186;3.236;2024-02-21T04:51:41;24.70;46.20
13521;DHT22;6832;51.186;3.236;2024-02-21T04:54:08;24.60;46.10
13521;DHT22;6832;51.186;3.236;2024-02-21T04:56:34;24.60;46.10
13521;DHT22;6832;51.186;3.236;2024-02-21T04:59:03;24.60;46.10
13521;DHT22;6832;51.186;3.236;2024-02-21T05:01:29;24.70;46.20
13521;DHT22;6832;51.186;3.236;2024-02-21T05:03:56;24.70;46.20
13521;DHT22;6832;51.186;3.236;2024-02-21T05:06:23;24.60;46.10
13521;DHT22;6832;51.186;3.236;2024-02-21T05:08:50;24.60;46.10
13521;DHT22;6832;51.186;3.236;2024-02-21T05:11:17;24.70;46.20
13521;DHT22;6832;51.186;3.236;2024-02-21T05:13:44;24.70;46.20
13521;DHT22;6832;51.186;3.236;2024-02-21T05:16:12;24.70;46.20
13521;DHT22;6832;51.186;3.236;2024-02-21T05:18:40;24.60;46.10
13521;DHT22;6832;51.186;3.236;2024-02-21T05:21:08;24.70;46.30
13521;DHT22;6832;51.186;3.236;2024-02-21T05:23:35;24.70;46.20
13521;DHT22;6832;51.186;3.236;2024-02-21T05:26:02;24.70;46.10
13521;DHT22;6832;51.186;3.236;2024-02-21T05:28:28;24.70;46.80
13521;DHT22;6832;51.186;3.236;2024-02-21T05:30:55;24.70;46.10
13521;DHT22;6832;51.186;3.236;2024-02-21T05:33:24;24.70;46.10
13521;DHT22;6832;51.186;3.236;2024-02-21T05:35:52;24.70;46.10
13521;DHT22;6832;51.186;3.236;2024-02-21T05:38:18;24.60;46.10
13521;DHT22;6832;51.186;3.236;2024-02-21T05:40:45;24.70;46.10
13521;DHT22;6832;51.186;3.236;2024-02-21T05:43:13;24.70;46.10
13521;DHT22;6832;51.186;3.236;2024-02-21T05:45:40;24.70;46.10
13521;DHT22;6832;51.186;3.236;2024-02-21T05:48:07;24.70;46.10
13521;DHT22;6832;51.186;3.236;2024-02-21T05:50:35;24.70;46.00
13521;DHT22;6832;51.186;3.236;2024-02-21T05:53:02;24.60;46.00
13521;DHT22;6832;51.186;3.236;2024-02-21T05:55:30;24.70;46.10
13521;DHT22;6832;51.186;3.236;2024-02-21T05:57:56;24.60;46.00
13521;DHT22;6832;51.186;3.236;2024-02-21T06:00:23;24.70;46.10
13521;DHT22;6832;51.186;3.236;2024-02-21T06:02:50;24.70;46.10
13521;DHT22;6832;51.186;3.236;2024-02-21T06:05:17;24.60;46.10
13521;DHT22;6832;51.186;3.236;2024-02-21T06:07:45;24.70;46.10
13521;DHT22;6832;51.186;3.236;2024-02-21T06:10:12;24.60;46.00
13521;DHT22;6832;51.186;3.236;2024-02-21T06:12:39;24.70;46.10
13521;DHT22;6832;51.186;3.236;2024-02-21T06:15:07;24.70;46.10
13521;DHT22;6832;51.186;3.236;2024-02-21T06:17:34;24.70;46.10
13521;DHT22;6832;51.186;3.236;2024-02-21T06:20:01;24.70;46.10
13521;DHT22;6832;51.186;3.236;2024-02-21T06:22:28;24.70;46.10
13521;DHT22;6832;51.186;3.236;2024-02-21T06:24:56;24.70;46.10
13521;DHT22;6832;51.186;3.236;2024-02-21T06:27:23;24.70;46.10
13521;DHT22;6832;51.186;3.236;2024-02-21T06:29:50;24.70;46.20
13521;DHT22;6832;51.186;3.236;2024-02-21T06:32:17;24.70;46.10
13521;DHT22;6832;51.186;3.236;2024-02-21T06:34:44;24.70;46.10
13521;DHT22;6832;51.186;3.236;2024-02-21T06:37:11;24.70;46.10
13521;DHT22;6832;51.186;3.236;2024-02-21T06:39:37;24.70;46.20
13521;DHT22;6832;51.186;3.236;2024-02-21T06:42:07;24.60;46.00
13521;DHT22;6832;51.186;3.236;2024-02-21T06:44:34;24.60;46.00
13521;DHT22;6832;51.186;3.236;2024-02-21T06:47:06;24.70;46.10
13521;DHT22;6832;51.186;3.236;2024-02-21T06:49:33;24.70;46.10
13521;DHT22;6832;51.186;3.236;2024-02-21T06:52:00;24.70;46.10
13521;DHT22;6832;51.186;3.236;2024-02-21T06:54:27;24.70;46.10
13521;DHT22;6832;51.186;3.236;2024-02-21T06:56:54;24.70;46.10
13521;DHT22;6832;51.186;3.236;2024-02-21T06:59:22;24.70;46.10
13521;DHT22;6832;51.186;3.236;2024-02-21T07:01:51;24.70;46.10
13521;DHT22;6832;51.186;3.236;2024-02-21T07:04:18;24.70;46.10
13521;DHT22;6832;51.186;3.236;2024-02-21T07:06:45;24.60;46.00
13521;DHT22;6832;51.186;3.236;2024-02-21T07:09:12;24.60;46.00
13521;DHT22;6832;51.186;3.236;2024-02-21T07:11:39;24.70;46.10
13521;DHT22;6832;51.186;3.236;2024-02-21T07:14:06;24.70;46.10
13521;DHT22;6832;51.186;3.236;2024-02-21T07:16:34;24.70;46.10
13521;DHT22;6832;51.186;3.236;2024-02-21T07:19:02;24.60;46.00
13521;DHT22;6832;51.186;3.236;2024-02-21T07:21:29;24.60;46.00
13521;DHT22;6832;51.186;3.236;2024-02-21T07:23:56;24.60;46.10
13521;DHT22;6832;51.186;3.236;2024-02-21T07:26:23;24.70;46.10
13521;DHT22;6832;51.186;3.236;2024-02-21T07:28:50;24.70;46.10
13521;DHT22;6832;51.186;3.236;2024-02-21T07:31:17;24.60;46.00
13521;DHT22;6832;51.186;3.236;2024-02-21T07:33:45;24.60;46.10
13521;DHT22;6832;51.186;3.236;2024-02-21T07:36:14;24.60;46.20
13521;DHT22;6832;51.186;3.236;2024-02-21T07:38:41;24.60;46.20
13521;DHT22;6832;51.186;3.236;2024-02-21T07:41:08;24.60;46.10
13521;DHT22;6832;51.186;3.236;2024-02-21T07:43:35;24.70;46.10
13521;DHT22;6832;51.186;3.236;2024-02-21T07:46:02;24.60;46.10
13521;DHT22;6832;51.186;3.236;2024-02-21T07:48:29;24.70;46.10
13521;DHT22;6832;51.186;3.236;2024-02-21T07:50:58;24.70;46.10
13521;DHT22;6832;51.186;3.236;2024-02-21T07:53:25;24.70;46.10
13521;DHT22;6832;51.186;3.236;2024-02-21T07:55:51;24.70;46.10
13521;DHT22;6832;51.186;3.236;2024-02-21T07:58:18;24.70;46.10
13521;DHT22;6832;51.186;3.236;2024-02-21T08:00:45;24.70;46.10
13521;DHT22;6832;51.186;3.236;2024-02-21T08:03:12;24.70;46.10
13521;DHT22;6832;51.186;3.236;2024-02-21T08:05:40;24.60;46.00
13521;DHT22;6832;51.186;3.236;2024-02-21T08:08:09;24.70;46.80
13521;DHT22;6832;51.186;3.236;2024-02-21T08:10:36;24.70;46.10
13521;DHT22;6832;51.186;3.236;2024-02-21T08:13:03;24.70;46.10
13521;DHT22;6832;51.186;3.236;2024-02-21T08:15:30;24.70;46.10
13521;DHT22;6832;51.186;3.236;2024-02-21T08:17:57;24.70;46.10
13521;DHT22;6832;51.186;3.236;2024-02-21T08:20:26;24.70;46.10
13521;DHT22;6832;51.186;3.236;2024-02-21T08:22:53;24.70;46.10
13521;DHT22;6832;51.186;3.236;2024-02-21T08:25:21;24.70;46.00
13521;DHT22;6832;51.186;3.236;2024-02-21T08:27:48;24.70;46.00
13521;DHT22;6832;51.186;3.236;2024-02-21T08:30:17;24.70;46.60
13521;DHT22;6832;51.186;3.236;2024-02-21T08:32:44;24.70;46.00
13521;DHT22;6832;51.186;3.236;2024-02-21T08:35:11;24.70;46.00
13521;DHT22;6832;51.186;3.236;2024-02-21T08:37:38;24.70;46.00
13521;DHT22;6832;51.186;3.236;2024-02-21T08:40:06;24.70;46.00
13521;DHT22;6832;51.186;3.236;2024-02-21T08:42:36;24.70;46.00
13521;DHT22;6832;51.186;3.236;2024-02-21T08:45:03;24.70;46.00
13521;DHT22;6832;51.186;3.236;2024-02-21T08:47:30;24.70;46.00
13521;DHT22;6832;51.186;3.236;2024-02-21T08:49:57;24.70;46.00
13521;DHT22;6832;51.186;3.236;2024-02-21T08:52:24;24.70;46.00
13521;DHT22;6832;51.186;3.236;2024-02-21T08:54:51;24.70;46.00
13521;DHT22;6832;51.186;3.236;2024-02-21T08:57:19;24.70;45.90
13521;DHT22;6832;51.186;3.236;2024-02-21T08:59:47;24.70;45.90
13521;DHT22;6832;51.186;3.236;2024-02-21T09:02:14;24.70;45.90
13521;DHT22;6832;51.186;3.236;2024-02-21T09:04:42;24.60;45.80
13521;DHT22;6832;51.186;3.236;2024-02-21T09:07:09;24.70;45.90
13521;DHT22;6832;51.186;3.236;2024-02-21T09:09:36;24.70;45.90
13521;DHT22;6832;51.186;3.236;2024-02-21T09:12:05;24.70;45.90
13521;DHT22;6832;51.186;3.236;2024-02-21T09:14:32;24.70;45.90
13521;DHT22;6832;51.186;3.236;2024-02-21T09:17:00;24.70;45.90
13521;DHT22;6832;51.186;3.236;2024-02-21T09:19:28;24.70;45.90
13521;DHT22;6832;51.186;3.236;2024-02-21T09:21:55;24.70;45.90
13521;DHT22;6832;51.186;3.236;2024-02-21T09:24:22;24.70;45.90
13521;DHT22;6832;51.186;3.236;2024-02-21T09:26:49;24.70;45.90
13521;DHT22;6832;51.186;3.236;2024-02-21T09:29:16;24.70;45.90
13521;DHT22;6832;51.186;3.236;2024-02-21T09:31:42;24.70;45.90
13521;DHT22;6832;51.186;3.236;2024-02-21T09:34:11;24.70;45.90
13521;DHT22;6832;51.186;3.236;2024-02-21T09:36:37;24.70;45.90
13521;DHT22;6832;51.186;3.236;2024-02-21T09:39:06;24.70;45.90
13521;DHT22;6832;51.186;3.236;2024-02-21T09:41:36;24.70;45.90
13521;DHT22;6832;51.186;3.236;2024-02-21T09:44:06;24.70;45.90
13521;DHT22;6832;51.186;3.236;2024-02-21T09:46:40;24.70;45.90
13521;DHT22;6832;51.186;3.236;2024-02-21T09:49:20;24.70;45.90
13521;DHT22;6832;51.186;3.236;2024-02-21T09:51:50;24.70;45.90
13521;DHT22;6832;51.186;3.236;2024-02-21T09:54:18;24.70;45.90
13521;DHT22;6832;51.186;3.236;2024-02-21T09:56:46;24.70;45.90
13521;DHT22;6832;51.186;3.236;2024-02-21T09:59:14;24.70;45.90
13521;DHT22;6832;51.186;3.236;2024-02-21T10:01:42;24.70;45.90
13521;DHT22;6832;51.186;3.236;2024-02-21T10:04:09;24.70;45.90
13521;DHT22;6832;51.186;3.236;2024-02-21T10:06:38;24.80;46.00
13521;DHT22;6832;51.186;3.236;2024-02-21T10:09:06;24.70;45.90
13521;DHT22;6832;51.186;3.236;2024-02-21T10:11:33;24.70;45.90
13521;DHT22;6832;51.186;3.236;2024-02-21T10:14:05;24.70;45.90
13521;DHT22;6832;51.186;3.236;2024-02-21T10:16:32;24.80;46.00
13521;DHT22;6832;51.186;3.236;2024-02-21T10:18:59;24.80;46.00
13521;DHT22;6832;51.186;3.236;2024-02-21T10:21:26;24.70;45.90
13521;DHT22;6832;51.186;3.236;2024-02-21T10:23:54;24.80;46.00
13521;DHT22;6832;51.186;3.236;2024-02-21T10:26:21;24.70;45.90
13521;DHT22;6832;51.186;3.236;2024-02-21T10:28:48;24.80;46.00
13521;DHT22;6832;51.186;3.236;2024-02-21T10:31:23;24.80;46.00
13521;DHT22;6832;51.186;3.236;2024-02-21T10:33:55;24.80;46.00
13521;DHT22;6832;51.186;3.236;2024-02-21T10:36:23;24.80;46.00
13521;DHT22;6832;51.186;3.236;2024-02-21T10:38:51;24.80;46.00
13521;DHT22;6832;51.186;3.236;2024-02-21T10:41:20;24.80;46.00
13521;DHT22;6832;51.186;3.236;2024-02-21T10:43:50;24.80;46.00
13521;DHT22;6832;51.186;3.236;2024-02-21T10:46:19;24.80;46.00
13521;DHT22;6832;51.186;3.236;2024-02-21T10:48:47;24.80;46.00
13521;DHT22;6832;51.186;3.236;2024-02-21T10:51:18;24.80;46.00
13521;DHT22;6832;51.186;3.236;2024-02-21T10:53:53;24.80;46.00
13521;DHT22;6832;51.186;3.236;2024-02-21T10:56:29;24.80;45.90
13521;DHT22;6832;51.186;3.236;2024-02-21T10:58:57;24.80;45.80
13521;DHT22;6832;51.186;3.236;2024-02-21T11:01:25;24.80;45.90
13521;DHT22;6832;51.186;3.236;2024-02-21T11:03:54;24.80;45.90
13521;DHT22;6832;51.186;3.236;2024-02-21T11:06:22;24.80;45.80
13521;DHT22;6832;51.186;3.236;2024-02-21T11:09:00;24.80;45.90
13521;DHT22;6832;51.186;3.236;2024-02-21T11:11:30;24.80;45.80
13521;DHT22;6832;51.186;3.236;2024-02-21T11:14:08;24.80;45.90
13521;DHT22;6832;51.186;3.236;2024-02-21T11:16:36;24.80;45.80
13521;DHT22;6832;51.186;3.236;2024-02-21T11:19:09;24.80;45.90
13521;DHT22;6832;51.186;3.236;2024-02-21T11:21:37;24.80;45.90
13521;DHT22;6832;51.186;3.236;2024-02-21T11:24:05;24.80;46.00
13521;DHT22;6832;51.186;3.236;2024-02-21T11:26:33;24.80;45.90
13521;DHT22;6832;51.186;3.236;2024-02-21T11:29:00;24.80;45.90
13521;DHT22;6832;51.186;3.236;2024-02-21T11:31:38;24.80;46.00
13521;DHT22;6832;51.186;3.236;2024-02-21T11:34:09;24.80;46.00
13521;DHT22;6832;51.186;3.236;2024-02-21T11:36:36;24.80;46.50
13521;DHT22;6832;51.186;3.236;2024-02-21T11:39:12;24.80;46.00
13521;DHT22;6832;51.186;3.236;2024-02-21T11:41:40;24.80;46.00
13521;DHT22;6832;51.186;3.236;2024-02-21T11:44:07;24.80;46.00
13521;DHT22;6832;51.186;3.236;2024-02-21T11:46:34;24.80;45.90
13521;DHT22;6832;51.186;3.236;2024-02-21T11:49:01;24.80;45.90
13521;DHT22;6832;51.186;3.236;2024-02-21T11:51:29;24.80;46.00
13521;DHT22;6832;51.186;3.236;2024-02-21T11:53:56;24.80;46.00
13521;DHT22;6832;51.186;3.236;2024-02-21T11:56:25;24.80;46.00
13521;DHT22;6832;51.186;3.236;2024-02-21T11:58:54;24.80;46.00
13521;DHT22;6832;51.186;3.236;2024-02-21T12:01:21;24.80;46.00
13521;DHT22;6832;51.186;3.236;2024-02-21T12:03:48;24.80;46.00
13521;DHT22;6832;51.186;3.236;2024-02-21T12:06:16;24.80;46.00
13521;DHT22;6832;51.186;3.236;2024-02-21T12:08:47;24.80;45.90
13521;DHT22;6832;51.186;3.236;2024-02-21T12:11:20;24.80;46.00
13521;DHT22;6832;51.186;3.236;2024-02-21T12:13:59;24.80;46.00
13521;DHT22;6832;51.186;3.236;2024-02-21T12:16:27;24.90;46.00
13521;DHT22;6832;51.186;3.236;2024-02-21T12:18:55;24.90;46.00
13521;DHT22;6832;51.186;3.236;2024-02-21T12:21:24;24.90;46.00
13521;DHT22;6832;51.186;3.236;2024-02-21T12:23:54;24.90;46.00
13521;DHT22;6832;51.186;3.236;2024-02-21T12:26:21;24.90;46.00
13521;DHT22;6832;51.186;3.236;2024-02-21T12:28:47;24.90;46.00
13521;DHT22;6832;51.186;3.236;2024-02-21T12:31:16;25.00;46.10
13521;DHT22;6832;51.186;3.236;2024-02-21T12:33:43;25.00;46.20
13521;DHT22;6832;51.186;3.236;2024-02-21T12:36:10;25.00;46.10
13521;DHT22;6832;51.186;3.236;2024-02-21T12:38:37;25.00;46.20
13521;DHT22;6832;51.186;3.236;2024-02-21T12:41:04;25.00;46.20
13521;DHT22;6832;51.186;3.236;2024-02-21T12:43:31;25.00;46.20
13521;DHT22;6832;51.186;3.236;2024-02-21T12:45:58;24.90;46.80
13521;DHT22;6832;51.186;3.236;2024-02-21T12:48:26;25.00;46.80
13521;DHT22;6832;51.186;3.236;2024-02-21T12:50:53;25.10;46.60
13521;DHT22;6832;51.186;3.236;2024-02-21T12:53:20;25.10;46.50
13521;DHT22;6832;51.186;3.236;2024-02-21T12:55:48;25.20;46.40
13521;DHT22;6832;51.186;3.236;2024-02-21T12:58:15;25.20;46.20
13521;DHT22;6832;51.186;3.236;2024-02-21T13:00:42;25.30;46.30
13521;DHT22;6832;51.186;3.236;2024-02-21T13:03:10;25.30;46.30
13521;DHT22;6832;51.186;3.236;2024-02-21T13:05:38;25.30;46.30
13521;DHT22;6832;51.186;3.236;2024-02-21T13:08:05;25.30;46.30
13521;DHT22;6832;51.186;3.236;2024-02-21T13:10:32;25.30;46.30
13521;DHT22;6832;51.186;3.236;2024-02-21T13:13:00;25.40;46.30
13521;DHT22;6832;51.186;3.236;2024-02-21T13:15:27;25.30;46.20
13521;DHT22;6832;51.186;3.236;2024-02-21T13:17:55;25.40;46.20
13521;DHT22;6832;51.186;3.236;2024-02-21T13:20:22;25.40;46.10
13521;DHT22;6832;51.186;3.236;2024-02-21T13:22:50;25.40;46.10
13521;DHT22;6832;51.186;3.236;2024-02-21T13:25:17;25.40;46.00
13521;DHT22;6832;51.186;3.236;2024-02-21T13:27:46;25.40;46.00
13521;DHT22;6832;51.186;3.236;2024-02-21T13:30:14;25.40;46.00
13521;DHT22;6832;51.186;3.236;2024-02-21T13:32:42;25.40;46.00
13521;DHT22;6832;51.186;3.236;2024-02-21T13:35:09;25.40;45.90
13521;DHT22;6832;51.186;3.236;2024-02-21T13:37:37;25.40;46.50
13521;DHT22;6832;51.186;3.236;2024-02-21T13:40:06;25.40;46.00
13521;DHT22;6832;51.186;3.236;2024-02-21T13:42:34;25.40;45.90
13521;DHT22;6832;51.186;3.236;2024-02-21T13:45:01;25.40;45.90
13521;DHT22;6832;51.186;3.236;2024-02-21T13:47:28;25.40;45.90
13521;DHT22;6832;51.186;3.236;2024-02-21T13:49:55;25.40;45.90
13521;DHT22;6832;51.186;3.236;2024-02-21T13:52:22;25.40;45.90
13521;DHT22;6832;51.186;3.236;2024-02-21T13:54:51;25.30;45.80
13521;DHT22;6832;51.186;3.236;2024-02-21T13:57:20;25.30;45.80
13521;DHT22;6832;51.186;3.236;2024-02-21T13:59:47;25.30;45.70
13521;DHT22;6832;51.186;3.236;2024-02-21T14:02:13;25.30;45.80
13521;DHT22;6832;51.186;3.236;2024-02-21T14:04:40;25.30;45.80
13521;DHT22;6832;51.186;3.236;2024-02-21T14:07:08;25.30;45.80
13521;DHT22;6832;51.186;3.236;2024-02-21T14:09:34;25.20;45.70
13521;DHT22;6832;51.186;3.236;2024-02-21T14:12:02;25.20;45.70
13521;DHT22;6832;51.186;3.236;2024-02-21T14:14:31;25.20;45.70
13521;DHT22;6832;51.186;3.236;2024-02-21T14:16:58;25.20;45.70
13521;DHT22;6832;51.186;3.236;2024-02-21T14:19:25;25.20;45.80
13521;DHT22;6832;51.186;3.236;2024-02-21T14:21:52;25.10;45.70
13521;DHT22;6832;51.186;3.236;2024-02-21T14:24:19;25.10;45.70
13521;DHT22;6832;51.186;3.236;2024-02-21T14:26:46;25.20;45.80
13521;DHT22;6832;51.186;3.236;2024-02-21T14:29:14;25.10;45.70
13521;DHT22;6832;51.186;3.236;2024-02-21T14:31:42;25.10;45.70
13521;DHT22;6832;51.186;3.236;2024-02-21T14:34:09;25.10;45.70
13521;DHT22;6832;51.186;3.236;2024-02-21T14:36:36;25.10;45.70
13521;DHT22;6832;51.186;3.236;2024-02-21T14:39:03;25.10;45.70
13521;DHT22;6832;51.186;3.236;2024-02-21T14:41:30;25.00;46.30
13521;DHT22;6832;51.186;3.236;2024-02-21T14:43:57;25.10;45.70
13521;DHT22;6832;51.186;3.236;2024-02-21T14:46:25;25.00;45.60
13521;DHT22;6832;51.186;3.236;2024-02-21T14:48:56;25.00;45.70
13521;DHT22;6832;51.186;3.236;2024-02-21T14:51:22;25.00;45.70
13521;DHT22;6832;51.186;3.236;2024-02-21T14:53:49;25.00;45.70
13521;DHT22;6832;51.186;3.236;2024-02-21T14:56:16;25.00;45.70
13521;DHT22;6832;51.186;3.236;2024-02-21T14:58:44;25.00;45.70
13521;DHT22;6832;51.186;3.236;2024-02-21T15:01:12;25.00;45.70
13521;DHT22;6832;51.186;3.236;2024-02-21T15:03:39;25.00;45.70
13521;DHT22;6832;51.186;3.236;2024-02-21T15:06:07;24.90;45.60
13521;DHT22;6832;51.186;3.236;2024-02-21T15:08:34;25.00;45.70
13521;DHT22;6832;51.186;3.236;2024-02-21T15:11:02;24.90;45.60
13521;DHT22;6832;51.186;3.236;2024-02-21T15:13:29;24.90;45.70
13521;DHT22;6832;51.186;3.236;2024-02-21T15:15:56;24.90;45.70
13521;DHT22;6832;51.186;3.236;2024-02-21T15:18:23;24.90;45.70
13521;DHT22;6832;51.186;3.236;2024-02-21T15:20:50;24.90;45.70
13521;DHT22;6832;51.186;3.236;2024-02-21T15:23:18;24.90;45.70
13521;DHT22;6832;51.186;3.236;2024-02-21T15:25:45;24.90;45.70
13521;DHT22;6832;51.186;3.236;2024-02-21T15:28:12;24.90;45.70
13521;DHT22;6832;51.186;3.236;2024-02-21T15:30:39;24.80;45.60
13521;DHT22;6832;51.186;3.236;2024-02-21T15:33:06;24.80;45.60
13521;DHT22;6832;51.186;3.236;2024-02-21T15:35:33;24.80;45.60
13521;DHT22;6832;51.186;3.236;2024-02-21T15:38:01;24.80;45.60
13521;DHT22;6832;51.186;3.236;2024-02-21T15:40:29;24.80;45.60
13521;DHT22;6832;51.186;3.236;2024-02-21T15:42:56;24.80;45.60
13521;DHT22;6832;51.186;3.236;2024-02-21T15:45:23;24.80;45.60
13521;DHT22;6832;51.186;3.236;2024-02-21T15:47:50;24.80;45.60